createdAt,value
2017-11-10T00:03:40.423Z,7.70
2017-11-10T00:06:45.564Z,7.60
2017-11-10T00:09:50.502Z,7.80
2017-11-10T00:12:56.914Z,7.90
2017-11-10T00:16:03.502Z,7.90
2017-11-10T00:19:05.745Z,7.80
2017-11-10T00:22:09.011Z,7.90
2017-11-10T00:25:14.052Z,8.00
2017-11-10T00:28:19.167Z,8.00
2017-11-10T00:31:22.429Z,7.90
2017-11-10T00:34:28.519Z,8.10
2017-11-10T00:37:32.745Z,7.70
2017-11-10T00:40:38.628Z,7.90
2017-11-10T00:43:44.093Z,7.80
2017-11-10T00:46:47.672Z,7.70
2017-11-10T00:49:50.907Z,8.00
2017-11-10T00:52:55.285Z,7.80
2017-11-10T00:55:58.873Z,7.80
2017-11-10T00:59:02.871Z,7.80
2017-11-10T01:02:07.339Z,7.80
2017-11-10T01:05:11.369Z,7.90
2017-11-10T01:08:14.859Z,7.80
2017-11-10T01:11:16.312Z,7.80
2017-11-10T01:14:19.485Z,7.80
2017-11-10T01:17:20.916Z,7.70
2017-11-10T01:20:22.317Z,7.80
2017-11-10T01:23:23.700Z,7.70
2017-11-10T01:26:27.072Z,7.50
2017-11-10T01:29:29.181Z,7.60
2017-11-10T01:32:30.599Z,7.60
2017-11-10T01:35:32.772Z,7.60
2017-11-10T01:38:34.990Z,7.60
2017-11-10T01:41:36.372Z,7.50
2017-11-10T01:44:37.932Z,7.60
2017-11-10T01:47:39.317Z,7.70
2017-11-10T01:50:40.770Z,7.70
2017-11-10T01:53:42.173Z,7.60
2017-11-10T01:56:43.663Z,7.60
2017-11-10T01:59:45.812Z,7.80
2017-11-10T02:02:48.068Z,7.80
2017-11-10T02:05:49.512Z,7.50
2017-11-10T02:08:50.949Z,7.90
2017-11-10T02:11:52.444Z,7.90
2017-11-10T02:14:54.604Z,7.90
2017-11-10T02:17:56.017Z,8.00
2017-11-10T02:20:57.565Z,7.90
2017-11-10T02:23:58.988Z,7.90
2017-11-10T02:27:01.125Z,7.70
2017-11-10T02:30:02.583Z,7.60
2017-11-10T02:33:04.033Z,7.80
2017-11-10T02:36:06.268Z,7.80
2017-11-10T02:39:07.688Z,7.80
2017-11-10T02:42:09.094Z,7.80
2017-11-10T02:45:12.462Z,7.90
2017-11-10T02:48:13.908Z,7.80
2017-11-10T02:51:15.355Z,7.80
2017-11-10T02:54:16.798Z,7.70
2017-11-10T02:57:18.254Z,7.90
2017-11-10T03:00:19.639Z,8.00
2017-11-10T03:03:21.071Z,7.90
2017-11-10T03:06:22.575Z,7.90
2017-11-10T03:09:23.989Z,7.90
2017-11-10T03:12:25.464Z,7.80
2017-11-10T03:15:27.631Z,7.80
2017-11-10T03:18:29.199Z,7.80
2017-11-10T03:21:30.644Z,7.80
2017-11-10T03:24:32.099Z,7.80
2017-11-10T03:27:33.516Z,7.90
2017-11-10T03:30:34.989Z,7.90
2017-11-10T03:33:36.416Z,7.90
2017-11-10T03:36:37.863Z,7.80
2017-11-10T03:39:39.247Z,8.00
2017-11-10T03:42:41.380Z,7.90
2017-11-10T03:45:42.806Z,7.70
2017-11-10T03:51:53.042Z,7.90
2017-11-10T03:54:54.487Z,7.90
2017-11-10T03:57:56.020Z,7.90
2017-11-10T04:00:57.463Z,8.00
2017-11-10T04:03:58.896Z,7.90
2017-11-10T04:07:01.117Z,7.90
2017-11-10T04:10:02.552Z,7.90
2017-11-10T04:13:03.997Z,7.80
2017-11-10T04:16:05.428Z,7.90
2017-11-10T04:19:07.676Z,8.00
2017-11-10T04:22:09.163Z,8.00
2017-11-10T04:25:10.553Z,8.00
2017-11-10T04:28:11.989Z,8.00
2017-11-10T04:31:13.385Z,8.10
2017-11-10T04:34:14.800Z,7.80
2017-11-10T04:37:16.207Z,7.90
2017-11-10T04:40:18.363Z,7.90
2017-11-10T04:43:19.827Z,7.90
2017-11-10T04:46:21.223Z,7.80
2017-11-10T04:49:23.391Z,7.90
2017-11-10T04:52:24.793Z,7.90
2017-11-10T04:55:26.977Z,7.90
2017-11-10T04:58:29.203Z,7.90
2017-11-10T05:01:31.422Z,7.80
2017-11-10T05:04:32.828Z,7.70
2017-11-10T05:07:34.372Z,7.90
2017-11-10T05:10:35.839Z,7.90
2017-11-10T05:13:37.252Z,7.90
2017-11-10T05:16:38.694Z,8.00
2017-11-10T05:19:40.079Z,8.00
2017-11-10T05:22:41.575Z,7.90
2017-11-10T05:25:43.712Z,8.00
2017-11-10T05:28:45.172Z,7.90
2017-11-10T05:31:46.578Z,8.00
2017-11-10T05:34:48.000Z,8.10
2017-11-10T05:37:50.196Z,8.10
2017-11-10T05:40:51.607Z,7.90
2017-11-10T05:43:53.051Z,8.10
2017-11-10T05:46:54.469Z,7.90
2017-11-10T05:49:55.933Z,8.00
2017-11-10T05:52:57.384Z,8.10
2017-11-10T05:55:59.571Z,8.20
2017-11-10T05:59:01.041Z,8.20
2017-11-10T06:02:09.525Z,8.10
2017-11-10T06:05:10.944Z,8.20
2017-11-10T06:08:12.340Z,8.30
2017-11-10T06:11:13.804Z,8.20
2017-11-10T06:14:15.204Z,8.30
2017-11-10T06:17:16.704Z,8.30
2017-11-10T06:20:18.148Z,8.10
2017-11-10T06:23:19.617Z,8.30
2017-11-10T06:26:21.088Z,8.20
2017-11-10T06:29:23.265Z,8.30
2017-11-10T06:32:25.427Z,8.30
2017-11-10T06:35:27.630Z,8.30
2017-11-10T06:38:29.031Z,8.30
2017-11-10T06:41:30.443Z,8.30
2017-11-10T06:44:31.867Z,8.30
2017-11-10T06:47:33.253Z,8.30
2017-11-10T06:50:34.711Z,8.30
2017-11-10T06:53:36.172Z,8.40
2017-11-10T06:56:37.573Z,8.40
2017-11-10T06:59:39.072Z,8.30
2017-11-10T07:02:41.227Z,8.40
2017-11-10T07:05:42.605Z,8.40
2017-11-10T07:08:44.037Z,8.40
2017-11-10T07:11:45.420Z,8.50
2017-11-10T07:14:46.823Z,8.50
2017-11-10T07:17:48.170Z,8.60
2017-11-10T07:20:49.619Z,8.40
2017-11-10T07:23:51.072Z,8.50
2017-11-10T07:26:52.516Z,8.40
2017-11-10T07:29:53.900Z,8.40
2017-11-10T07:32:55.306Z,8.50
2017-11-10T07:35:57.444Z,8.50
2017-11-10T07:38:58.860Z,8.60
2017-11-10T07:42:00.299Z,8.50
2017-11-10T07:45:01.719Z,8.60
2017-11-10T07:48:03.921Z,8.50
2017-11-10T07:51:05.288Z,8.50
2017-11-10T07:54:06.732Z,8.50
2017-11-10T07:57:08.125Z,8.50
2017-11-10T08:00:09.524Z,8.40
2017-11-10T08:03:10.888Z,8.40
2017-11-10T08:06:12.260Z,8.40
2017-11-10T08:09:13.633Z,8.40
2017-11-10T08:12:15.043Z,8.40
2017-11-10T08:15:16.486Z,8.40
2017-11-10T08:18:17.828Z,8.50
2017-11-10T08:21:19.262Z,8.40
2017-11-10T08:24:21.385Z,8.50
2017-11-10T08:27:23.510Z,8.50
2017-11-10T08:30:24.939Z,8.50
2017-11-10T08:33:27.088Z,8.40
2017-11-10T08:36:28.537Z,8.40
2017-11-10T08:39:29.955Z,8.20
2017-11-10T08:42:31.378Z,8.40
2017-11-10T08:45:33.510Z,8.50
2017-11-10T08:48:35.021Z,8.50
2017-11-10T08:51:36.714Z,8.30
2017-11-10T08:54:38.116Z,8.50
2017-11-10T08:57:39.519Z,8.50
2017-11-10T09:00:40.889Z,8.40
2017-11-10T09:03:42.274Z,8.50
2017-11-10T09:06:43.628Z,8.60
2017-11-10T09:09:45.013Z,8.50
2017-11-10T09:12:46.354Z,8.50
2017-11-10T09:15:49.108Z,8.50
2017-11-10T09:18:50.443Z,8.40
2017-11-10T09:21:52.583Z,8.60
2017-11-10T09:24:53.905Z,8.60
2017-11-10T09:28:05.219Z,8.60
2017-11-10T09:31:18.492Z,8.60
2017-11-10T09:38:06.900Z,8.60
2017-11-10T09:41:14.294Z,8.70
2017-11-10T09:44:21.775Z,8.70
2017-11-10T09:47:29.186Z,8.70
2017-11-10T09:50:36.783Z,8.70
2017-11-10T09:53:51.990Z,8.70
2017-11-10T09:56:57.311Z,8.70
2017-11-10T10:00:13.565Z,8.70
2017-11-10T10:03:20.923Z,8.70
2017-11-10T10:06:23.131Z,8.80
2017-11-10T10:09:30.408Z,8.80
2017-11-10T10:12:35.640Z,9.10
2017-11-10T10:15:45.722Z,9.10
2017-11-10T10:22:29.598Z,9.00
2017-11-10T10:25:30.996Z,9.00
2017-11-10T10:28:32.382Z,9.00
2017-11-10T10:31:33.702Z,8.90
2017-11-10T10:34:42.762Z,9.00
2017-11-10T10:37:44.257Z,9.00
2017-11-10T10:40:45.671Z,9.00
2017-11-10T10:43:47.057Z,9.00
2017-11-10T10:46:48.408Z,9.00
2017-11-10T10:49:49.815Z,9.10
2017-11-10T10:52:51.148Z,9.10
2017-11-10T10:55:53.238Z,9.30
2017-11-10T10:58:54.542Z,9.30
2017-11-10T11:01:55.929Z,9.30
2017-11-10T11:04:57.273Z,9.30
2017-11-10T11:07:59.322Z,9.20
2017-11-10T11:11:07.591Z,9.30
2017-11-10T11:14:08.920Z,9.30
2017-11-10T11:17:10.275Z,9.30
2017-11-10T11:20:11.622Z,9.30
2017-11-10T11:23:13.075Z,9.20
2017-11-10T11:26:14.412Z,9.30
2017-11-10T11:29:15.763Z,9.20
2017-11-10T11:32:17.110Z,9.30
2017-11-10T11:35:18.452Z,9.30
2017-11-10T11:38:20.527Z,9.20
2017-11-10T11:41:21.810Z,9.20
2017-11-10T11:44:23.153Z,9.20
2017-11-10T11:47:24.514Z,9.20
2017-11-10T11:50:26.691Z,9.10
2017-11-10T11:53:28.064Z,9.10
2017-11-10T11:56:30.525Z,9.10
2017-11-10T11:59:32.851Z,9.20
2017-11-10T12:02:34.271Z,9.20
2017-11-10T12:05:35.996Z,9.20
2017-11-10T12:08:38.505Z,9.20
2017-11-10T12:11:40.018Z,9.20
2017-11-10T12:14:41.900Z,9.20
2017-11-10T12:17:44.696Z,9.20
2017-11-10T12:20:46.905Z,9.30
2017-11-10T12:23:48.357Z,9.20
2017-11-10T12:26:50.306Z,9.30
2017-11-10T12:29:52.013Z,9.30
2017-11-10T12:32:53.526Z,9.20
2017-11-10T12:35:55.875Z,9.30
2017-11-10T12:38:58.302Z,9.20
2017-11-10T12:41:59.714Z,9.30
2017-11-10T12:45:02.032Z,9.20
2017-11-10T12:48:04.184Z,9.20
2017-11-10T12:51:07.903Z,9.30
2017-11-10T12:54:11.503Z,9.30
2017-11-10T12:57:14.294Z,9.30
2017-11-10T13:00:17.747Z,9.30
2017-11-10T13:03:19.923Z,9.30
2017-11-10T13:06:22.131Z,9.50
2017-11-10T13:09:23.491Z,9.40
2017-11-10T13:12:24.821Z,9.40
2017-11-10T13:15:26.215Z,9.40
2017-11-10T13:18:27.558Z,9.40
2017-11-10T13:21:28.920Z,9.40
2017-11-10T13:24:30.282Z,9.40
2017-11-10T13:27:31.606Z,9.40
2017-11-10T13:30:32.911Z,9.50
2017-11-10T13:33:34.257Z,9.50
2017-11-10T13:36:35.565Z,9.50
2017-11-10T13:39:36.865Z,9.60
2017-11-10T13:42:38.240Z,9.50
2017-11-10T13:45:39.523Z,9.50
2017-11-10T13:48:40.854Z,9.60
2017-11-10T13:51:42.190Z,9.50
2017-11-10T13:54:43.531Z,9.60
2017-11-10T13:57:44.829Z,9.70
2017-11-10T14:00:46.188Z,9.70
2017-11-10T14:03:48.279Z,9.60
2017-11-10T14:06:49.592Z,9.60
2017-11-10T14:09:50.945Z,9.60
2017-11-10T14:12:52.240Z,9.60
2017-11-10T14:15:53.615Z,9.60
2017-11-10T14:18:54.951Z,9.60
2017-11-10T14:21:56.316Z,9.50
2017-11-10T14:24:57.629Z,9.50
2017-11-10T14:27:58.949Z,9.50
2017-11-10T14:31:00.373Z,9.50
2017-11-10T14:34:01.677Z,9.50
2017-11-10T14:37:03.102Z,9.50
2017-11-10T14:40:05.178Z,9.50
2017-11-10T14:43:14.398Z,9.50
2017-11-10T14:46:15.808Z,9.40
2017-11-10T14:49:17.151Z,9.50
2017-11-10T14:52:18.534Z,9.50
2017-11-10T14:55:19.839Z,9.60
2017-11-10T14:58:21.192Z,9.60
2017-11-10T15:01:22.532Z,9.50
2017-11-10T15:04:23.910Z,9.40
2017-11-10T15:07:25.233Z,9.50
2017-11-10T15:10:26.569Z,9.50
2017-11-10T15:13:28.681Z,9.50
2017-11-10T15:16:30.031Z,9.50
2017-11-10T15:19:31.555Z,9.40
2017-11-10T15:22:33.008Z,9.50
2017-11-10T15:25:34.305Z,9.40
2017-11-10T15:28:35.772Z,9.30
2017-11-10T15:31:37.178Z,9.30
2017-11-10T15:34:38.570Z,9.30
2017-11-10T15:37:39.982Z,9.20
2017-11-10T15:40:41.277Z,9.20
2017-11-10T15:43:42.615Z,9.10
2017-11-10T15:46:43.947Z,9.00
2017-11-10T15:49:45.410Z,9.00
2017-11-10T15:52:53.819Z,9.00
2017-11-10T15:55:55.161Z,9.00
2017-11-10T15:58:56.852Z,9.00
2017-11-10T16:01:58.963Z,9.00
2017-11-10T16:05:00.322Z,9.00
2017-11-10T16:08:02.282Z,9.00
2017-11-10T16:11:06.098Z,8.90
2017-11-10T16:14:07.732Z,8.80
2017-11-10T16:17:10.079Z,8.70
2017-11-10T16:20:11.709Z,8.70
2017-11-10T16:23:13.316Z,8.70
2017-11-10T16:26:14.783Z,8.70
2017-11-10T16:29:16.172Z,8.60
2017-11-10T16:32:17.831Z,8.60
2017-11-10T16:35:20.900Z,8.50
2017-11-10T16:38:23.765Z,8.50
2017-11-10T16:41:25.575Z,8.50
2017-11-10T16:44:26.970Z,8.40
2017-11-10T16:47:29.654Z,8.60
2017-11-10T16:50:32.113Z,8.60
2017-11-10T16:53:34.999Z,8.60
2017-11-10T16:56:36.441Z,8.50
2017-11-10T16:59:39.169Z,8.50
2017-11-10T17:02:42.018Z,8.50
2017-11-10T17:05:43.615Z,8.50
2017-11-10T17:08:45.247Z,8.60
2017-11-10T17:11:47.342Z,8.50
2017-11-10T17:14:50.336Z,8.50
2017-11-10T17:17:51.706Z,8.50
2017-11-10T17:20:54.366Z,8.50
2017-11-10T17:23:56.963Z,8.50
2017-11-10T17:26:58.311Z,8.50
2017-11-10T17:30:14.692Z,8.50
2017-11-10T17:33:17.200Z,8.50
2017-11-10T17:36:18.629Z,8.50
2017-11-10T17:39:21.348Z,8.70
2017-11-10T17:42:23.630Z,8.80
2017-11-10T17:45:25.102Z,8.70
2017-11-10T17:48:26.479Z,8.70
2017-11-10T17:51:28.293Z,8.60
2017-11-10T17:54:31.610Z,8.50
2017-11-10T17:57:33.429Z,8.50
2017-11-10T18:00:34.852Z,8.50
2017-11-10T18:03:38.097Z,8.40
2017-11-10T18:06:39.561Z,8.40
2017-11-10T18:09:42.263Z,8.30
2017-11-10T18:12:44.646Z,8.30
2017-11-10T18:15:46.899Z,8.30
2017-11-10T18:18:50.267Z,8.30
2017-11-10T18:21:52.078Z,8.30
2017-11-10T18:24:54.381Z,8.30
2017-11-10T18:27:57.564Z,8.30
2017-11-10T18:31:00.232Z,8.50
2017-11-10T18:34:06.205Z,8.50
2017-11-10T18:37:08.183Z,8.40
2017-11-10T18:40:09.644Z,8.40
2017-11-10T18:43:11.485Z,8.30
2017-11-10T18:46:13.694Z,8.20
2017-11-10T18:49:21.917Z,8.20
2017-11-10T18:52:23.812Z,8.30
2017-11-10T18:55:31.651Z,8.20
2017-11-10T18:58:33.068Z,8.20
2017-11-10T19:01:34.489Z,8.00
2017-11-10T19:04:36.200Z,8.20
2017-11-10T19:07:40.876Z,8.20
2017-11-10T19:10:42.448Z,8.20
2017-11-10T19:13:45.466Z,8.20
2017-11-10T19:16:48.321Z,8.20
2017-11-10T19:19:51.233Z,8.20
2017-11-10T19:22:52.718Z,8.20
2017-11-10T19:25:54.697Z,8.10
2017-11-10T19:28:57.340Z,8.20
2017-11-10T19:31:59.993Z,8.40
2017-11-10T19:35:01.677Z,8.30
2017-11-10T19:38:03.604Z,8.10
2017-11-10T19:41:05.267Z,8.00
2017-11-10T19:44:07.282Z,8.00
2017-11-10T19:50:53.907Z,8.00
2017-11-10T19:53:55.372Z,8.00
2017-11-10T19:56:56.714Z,8.10
2017-11-10T19:59:58.105Z,8.00
2017-11-10T20:02:59.556Z,8.00
2017-11-10T20:06:01.681Z,7.90
2017-11-10T20:09:03.261Z,7.90
2017-11-10T20:12:05.368Z,7.90
2017-11-10T20:15:06.747Z,7.90
2017-11-10T20:18:08.188Z,7.90
2017-11-10T20:21:09.825Z,7.80
2017-11-10T20:24:12.049Z,7.80
2017-11-10T20:27:13.400Z,7.80
2017-11-10T20:30:15.527Z,7.80
2017-11-10T20:33:17.685Z,7.80
2017-11-10T20:36:19.152Z,7.80
2017-11-10T20:39:20.637Z,7.80
2017-11-10T20:42:22.078Z,7.60
2017-11-10T20:45:23.504Z,7.50
2017-11-10T20:48:24.967Z,7.60
2017-11-10T20:51:26.337Z,7.70
2017-11-10T20:54:27.689Z,7.80
2017-11-10T20:57:29.221Z,7.80
2017-11-10T21:00:30.681Z,7.60
2017-11-10T21:03:32.114Z,7.60
2017-11-10T21:06:34.219Z,7.40
2017-11-10T21:09:35.603Z,7.60
2017-11-10T21:12:37.133Z,7.40
2017-11-10T21:15:38.517Z,7.30
2017-11-10T21:18:40.878Z,7.30
2017-11-10T21:21:42.282Z,7.30
2017-11-10T21:24:43.841Z,7.30
2017-11-10T21:27:45.201Z,7.30
2017-11-10T21:30:46.638Z,7.30
2017-11-10T21:33:48.288Z,7.20
2017-11-10T21:36:53.671Z,7.30
2017-11-10T21:39:55.225Z,7.00
2017-11-10T21:42:56.825Z,7.20
2017-11-10T21:45:59.089Z,7.10
2017-11-10T21:49:01.238Z,7.10
2017-11-10T21:52:02.734Z,7.10
2017-11-10T21:55:04.326Z,7.00
2017-11-10T21:58:05.735Z,7.10
2017-11-10T22:01:07.921Z,7.10
2017-11-10T22:04:09.526Z,7.30
2017-11-10T22:07:10.912Z,7.20
2017-11-10T22:10:12.281Z,7.20
2017-11-10T22:13:13.652Z,7.10
2017-11-10T22:16:15.053Z,7.20
2017-11-10T22:19:17.164Z,7.20
2017-11-10T22:22:18.580Z,7.20
2017-11-10T22:25:20.713Z,7.00
2017-11-10T22:28:22.114Z,6.90
2017-11-10T22:31:23.537Z,7.10
2017-11-10T22:34:25.655Z,7.00
2017-11-10T22:37:27.060Z,7.00
2017-11-10T22:40:29.165Z,7.00
2017-11-10T22:43:30.532Z,7.00
2017-11-10T22:46:32.104Z,7.20
2017-11-10T22:49:33.524Z,7.00
2017-11-10T22:52:35.050Z,7.10
2017-11-10T22:55:37.205Z,7.10
2017-11-10T22:58:39.358Z,7.20
2017-11-10T23:01:40.988Z,7.30
2017-11-10T23:04:42.690Z,7.20
2017-11-10T23:07:44.897Z,7.00
2017-11-10T23:10:46.320Z,7.10
2017-11-10T23:13:48.427Z,6.80
2017-11-10T23:16:49.855Z,6.80
2017-11-10T23:19:51.352Z,6.70
2017-11-10T23:22:52.805Z,6.90
2017-11-10T23:25:54.244Z,6.90
2017-11-10T23:28:55.597Z,7.00
2017-11-10T23:31:56.986Z,6.80
2017-11-10T23:34:58.381Z,6.90
2017-11-10T23:37:59.809Z,6.90
2017-11-10T23:41:01.927Z,6.90
2017-11-10T23:44:03.352Z,6.90
2017-11-10T23:47:04.909Z,6.90
2017-11-10T23:50:06.301Z,6.90
2017-11-10T23:53:07.716Z,6.90
2017-11-10T23:56:09.050Z,6.60
2017-11-10T23:59:10.503Z,7.00
